LICT/TPS METAR and TAF weather

Enter ICAO airport designator
Station Type Date Time Source
LICT METAR 2020/04/05 15:55 UTC NOAA

LICT 051555Z 34009KT CAVOK 16/14 Q1017


Station Type Date Time Source
LICT Decoded METAR 2020/04/05 15:55 UTC NOAA

Trapani / Birgi, Italy (LICT) 37-55N 012-30E 14M
Apr 05, 2020 - 11:55 AM EDT / 2020.04.05 1555 UTC
Wind: from the NNW (340 degrees) at 10 MPH (9 KT):0
Visibility: greater than 7 mile(s):0
Temperature: 60 F (16 C)
Dew Point: 57 F (14 C)
Relative Humidity: 87%
Pressure (altimeter): 30.03 in. Hg (1017 hPa)
ob: LICT 051555Z 34009KT CAVOK 16/14 Q1017
cycle: 16

Station Type Date Time Source
LICT TAF 2019/01/11 09:24 UTC NOAA

TAF TAF LICT 110800Z 1109/1121 33012KT 9999 SCT025

Example: see airport list